Flight Track Log - Related Links

Times and Time Zones

All times are in EDT time to prevent confusion due to time zone crossing. See the DAL268 flight status page for this flight to view local times or setup timezone preferences in your user account.

Time Position Orientation Groundspeed Altitude Reporting Facility
EDT Latitude Longitude Course Direction KTS MPH feet Rate Location/Type
Fri 02:40:17 PM 37.6110 -122.3780 58° Northeast 86 99  Level FlightAware ADS-B
Fri 02:40:38 PM 37.6210 -122.3710 29° Northeast 165 190 1,297 Level FlightAware ADS-B
Fri 02:40:54 PM 37.6333 -122.3620 30° Northeast 166 191 800 2,538 Climbing FlightAware ADS-B
Fri 02:41:04 PM 37.6391 -122.3550 44° Northeast 173 199 1,100 1,778 Climbing FlightAware ADS-B
Fri 02:41:21 PM 37.6491 -122.3430 44° Northeast 192 221 1,600 2,118 Climbing FlightAware ADS-B
Fri 02:41:38 PM 37.6605 -122.3280 46° Northeast 204 235 2,300 2,250 Climbing FlightAware ADS-B
Fri 02:41:53 PM 37.6714 -122.3150 43° Northeast 221 254 2,800 2,200 Climbing FlightAware ADS-B
Fri 02:42:08 PM 37.6825 -122.3000 47° Northeast 237 273 3,400 1,935 Climbing FlightAware ADS-B
Fri 02:42:24 PM 37.6948 -122.2840 46° Northeast 262 302 3,800 2,200 Climbing FlightAware ADS-B
Fri 02:42:38 PM 37.7072 -122.2670 47° Northeast 269 310 4,500 2,919 Climbing FlightAware ADS-B
Fri 02:43:01 PM 37.7268 -122.2420 45° Northeast 274 315 5,600 3,143 Climbing FlightAware ADS-B
Fri 02:43:20 PM 37.7455 -122.2210 42° Northeast 278 320 6,700 3,086 Climbing FlightAware ADS-B
Fri 02:43:36 PM 37.7615 -122.2050 38° Northeast 283 326 7,400 2,909 Climbing FlightAware ADS-B
Fri 02:43:53 PM 37.7794 -122.1880 37° Northeast 286 329 8,300 3,086 Climbing FlightAware ADS-B
Fri 02:44:11 PM 37.7989 -122.1690 38° Northeast 289 333 9,200 2,824 Climbing FlightAware ADS-B
Fri 02:44:27 PM 37.8163 -122.1530 36° Northeast 296 341 9,900 2,348 Climbing FlightAware ADS-B
Fri 02:44:57 PM 37.8500 -122.1210 37° Northeast 313 360 11,000 1,574 Climbing FlightAware ADS-B
Fri 02:45:28 PM 37.8890 -122.0850 36° Northeast 353 406 11,500 1,161 Climbing FlightAware ADS-B
Fri 02:45:59 PM 37.9306 -122.0450 37° Northeast 380 437 12,200 1,770 Climbing FlightAware ADS-B
Fri 02:46:29 PM 37.9736 -122.0040 37° Northeast 392 451 13,300 2,286 Climbing FlightAware ADS-B
Fri 02:47:02 PM 38.0222 -121.9570 37° Northeast 399 459 14,600 2,074 Climbing FlightAware ADS-B
Fri 02:47:50 PM 38.0962 -121.8870 37° Northeast 409 471 16,100 1,846 Climbing FlightAware ADS-B
Fri 02:48:20 PM 38.1400 -121.8450 37° Northeast 428 493 17,000 2,029 Climbing FlightAware ADS-B
Fri 02:48:58 PM 38.2010 -121.7850 38° Northeast 436 502 18,400 1,946 Climbing FlightAware ADS-B
Fri 02:49:34 PM 38.2580 -121.7310 37° Northeast 446 513 19,400 1,714 Climbing FlightAware ADS-B
Fri 02:50:08 PM 38.3160 -121.6750 37° Northeast 455 524 20,400 1,765 Climbing FlightAware ADS-B
Fri 02:50:42 PM 38.3740 -121.6190 37° Northeast 464 534 21,400 1,629 Climbing FlightAware ADS-B
Fri 02:51:18 PM 38.4340 -121.5570 39° Northeast 475 547 22,300 1,588 Climbing FlightAware ADS-B
Fri 02:51:50 PM 38.4820 -121.4870 49° Northeast 485 558 23,200 1,543 Climbing FlightAware ADS-B
Fri 02:52:28 PM 38.5310 -121.4040 53° Northeast 491 565 24,100 1,478 Climbing FlightAware ADS-B
Fri 02:52:59 PM 38.5770 -121.3240 54° Northeast 499 574 24,900 1,521 Climbing FlightAware ADS-B
Fri 02:53:39 PM 38.6320 -121.2280 54° Northeast 506 582 25,900 1,472 Climbing FlightAware ADS-B
Fri 02:53:52 PM 38.6502 -121.1970 53° Northeast 507 583 26,200 1,371 Climbing FlightAware ADS-B
Fri 02:54:49 PM 38.7300 -121.0590 53° Northeast 519 597 27,500 1,281 Climbing FlightAware ADS-B
Fri 02:55:21 PM 38.7750 -120.9800 54° Northeast 525 604 28,100 1,286 Climbing FlightAware ADS-B
Fri 02:55:59 PM 38.8310 -120.8840 53° Northeast 530 610 29,000 1,541 Climbing FlightAware ADS-B
Fri 02:56:35 PM 38.8830 -120.7930 54° Northeast 529 609 30,000 1,500 Climbing FlightAware ADS-B
Fri 02:57:15 PM 38.9400 -120.6960 53° Northeast 529 609 30,900 1,403 Climbing FlightAware ADS-B
Fri 02:57:52 PM 38.9960 -120.5980 54° Northeast 529 609 31,800 1,371 Climbing FlightAware ADS-B
Fri 02:58:25 PM 39.0430 -120.5180 53° Northeast 529 609 32,500 1,343 Climbing FlightAware ADS-B
Fri 02:58:59 PM 39.0920 -120.4330 53° Northeast 528 608 33,300 1,333 Climbing FlightAware ADS-B
Fri 02:59:37 PM 39.1460 -120.3370 54° Northeast 527 606 34,100 1,355 Climbing FlightAware ADS-B
Fri 03:00:01 PM 39.1820 -120.2740 54° Northeast 525 604 34,700 750 Climbing FlightAware ADS-B
Fri 03:00:49 PM 39.2510 -120.1520 54° Northeast 529 609 35,000 225 Climbing FlightAware ADS-B
Fri 03:01:21 PM 39.2980 -120.0710 53° Northeast 529 609 35,000  Level FlightAware ADS-B
Fri 03:01:51 PM 39.3420 -119.9930 54° Northeast 526 605 35,000  Level FlightAware ADS-B
Fri 03:02:50 PM 39.4240 -119.8470 54° Northeast 527 606 35,000  Level FlightAware ADS-B
Fri 03:03:25 PM 39.4760 -119.7540 54° Northeast 528 608 35,000  Level FlightAware ADS-B
Fri 03:03:57 PM 39.5220 -119.6720 54° Northeast 527 606 35,000  Level FlightAware ADS-B
Fri 03:04:34 PM 39.5730 -119.5810 54° Northeast 527 606 35,000 265 Level FlightAware ADS-B
Fri 03:05:05 PM 39.6200 -119.4980 54° Northeast 531 611 35,300 896 Climbing FlightAware ADS-B
Fri 03:05:41 PM 39.6700 -119.4080 54° Northeast 532 612 36,000 1,083 Climbing FlightAware ADS-B
Fri 03:06:17 PM 39.7220 -119.3140 54° Northeast 531 611 36,600 811 Climbing FlightAware ADS-B
Fri 03:06:55 PM 39.7770 -119.2140 54° Northeast 533 613 37,000 333 Climbing FlightAware ADS-B
Fri 03:07:29 PM 39.8260 -119.1260 54° Northeast 536 617 37,000  Level FlightAware ADS-B
Fri 03:08:13 PM 39.8900 -119.0100 54° Northeast 535 616 37,000  Level FlightAware ADS-B
Fri 03:08:45 PM 39.9360 -118.9250 55° Northeast 536 617 37,000  Level FlightAware ADS-B
Fri 03:09:20 PM 39.9840 -118.8370 55° Northeast 535 616 37,000  Level FlightAware ADS-B
Fri 03:09:56 PM 40.0370 -118.7400 54° Northeast 536 617 37,000  Level FlightAware ADS-B
Fri 03:10:25 PM 40.0780 -118.6640 55° Northeast 536 617 37,000  Level FlightAware ADS-B
Fri 03:10:56 PM 40.1200 -118.5780 57° Northeast 534 615 37,000  Level FlightAware ADS-B
Fri 03:11:39 PM 40.1600 -118.4530 67° East 530 610 37,000  Level FlightAware ADS-B
Fri 03:12:20 PM 40.1940 -118.3280 70° East 531 611 37,000  Level FlightAware ADS-B
Fri 03:12:56 PM 40.2240 -118.2200 70° East 531 611 37,000  Level FlightAware ADS-B
Fri 03:13:28 PM 40.2500 -118.1240 70° East 532 612 37,000  Level FlightAware ADS-B
Fri 03:14:08 PM 40.2830 -118.0000 71° East 533 613 37,000  Level FlightAware ADS-B
Fri 03:14:47 PM 40.3140 -117.8870 70° East 534 615 37,000  Level FlightAware ADS-B
Fri 03:15:27 PM 40.3470 -117.7630 71° East 535 616 37,000  Level FlightAware ADS-B
Fri 03:16:04 PM 40.3740 -117.6670 70° East 535 616 37,000  Level FlightAware ADS-B
Fri 03:16:40 PM 40.4000 -117.5740 70° East 535 616 37,000  Level FlightAware ADS-B
Fri 03:17:16 PM 40.4260 -117.4800 70° East 535 616 37,000  Level FlightAware ADS-B
Fri 03:17:52 PM 40.4510 -117.3870 71° East 535 616 37,000  Level FlightAware ADS-B
Fri 03:18:28 PM 40.4770 -117.2930 70° East 535 616 37,000  Level FlightAware ADS-B
Fri 03:19:04 PM 40.5030 -117.2000 70° East 535 616 37,000  Level FlightAware ADS-B
Fri 03:19:40 PM 40.5290 -117.1060 70° East 535 616 37,000  Level FlightAware ADS-B
Fri 03:20:21 PM 40.5590 -117.0000 70° East 535 616 37,000  Level FlightAware ADS-B
Fri 03:20:59 PM 40.5860 -116.9010 70° East 535 616 37,000  Level FlightAware ADS-B
Fri 03:21:35 PM 40.6120 -116.8070 70° East 535 616 37,000  Level FlightAware ADS-B
Fri 03:22:11 PM 40.6380 -116.7130 70° East 535 616 37,000  Level FlightAware ADS-B
Fri 03:22:43 PM 40.6610 -116.6300 70° East 535 616 37,000  Level FlightAware ADS-B
Fri 03:23:18 PM 40.6860 -116.5380 70° East 535 616 37,000  Level FlightAware ADS-B
Fri 03:23:52 PM 40.7100 -116.4500 70° East 535 616 37,000  Level FlightAware ADS-B
Fri 03:24:31 PM 40.7951 -116.0840 73° East 541 623 37,000  Level FlightAware ADS-B
Fri 03:25:01 PM 40.8206 -115.9880 71° East 542 624 37,000  Level FlightAware ADS-B
Fri 03:25:34 PM 40.8472 -115.8860 71° East 543 625 37,000  Level FlightAware ADS-B
Fri 03:26:05 PM 40.8728 -115.7890 71° East 543 625 37,000  Level FlightAware ADS-B
Fri 03:28:38 PM 40.9966 -115.3120 71° East 542 624 37,000  Level FlightAware ADS-B
Fri 03:29:09 PM 41.0215 -115.2140 71° East 541 623 37,000  Level FlightAware ADS-B
Fri 03:29:39 PM 41.0459 -115.1190 71° East 540 621 37,000  Level FlightAware ADS-B
Fri 03:30:10 PM 41.0703 -115.0230 71° East 539 620 37,000  Level FlightAware ADS-B
Fri 03:30:44 PM 41.0976 -114.9160 71° East 540 621 37,000  Level FlightAware ADS-B
Fri 03:31:14 PM 41.1213 -114.8210 72° East 538 619 37,000  Level FlightAware ADS-B
Fri 03:31:45 PM 41.1455 -114.7250 71° East 537 618 37,000  Level FlightAware ADS-B
Fri 03:32:16 PM 41.1694 -114.6290 72° East 538 619 37,000  Level FlightAware ADS-B
Fri 03:32:46 PM 41.1930 -114.5350 72° East 535 616 37,000  Level FlightAware ADS-B
Fri 03:33:17 PM 41.2168 -114.4390 72° East 534 615 37,000  Level FlightAware ADS-B
Fri 03:33:48 PM 41.2401 -114.3440 72° East 533 613 37,000  Level FlightAware ADS-B
Fri 03:34:19 PM 41.2644 -114.2450 72° East 533 613 37,000  Level FlightAware ADS-B
Fri 03:35:17 PM 41.3081 -114.0660 72° East 535 616 37,000  Level FlightAware ADS-B
Fri 03:35:47 PM 41.3313 -113.9710 72° East 534 615 37,000  Level FlightAware ADS-B
Fri 03:36:15 PM 41.3519 -113.8830 73° East 534 615 37,000  Level FlightAware ADS-B
Fri 03:36:41 PM 41.3669 -113.8030 76° East 531 611 37,000  Level FlightAware ADS-B
Fri 03:37:11 PM 41.3806 -113.7060 79° East 530 610 37,000  Level FlightAware ADS-B
Fri 03:37:41 PM 41.3933 -113.6080 80° East 531 611 37,000  Level FlightAware ADS-B
Fri 03:38:12 PM 41.4055 -113.5110 80° East 531 611 37,000 295 Level FlightAware ADS-B
Fri 03:38:42 PM 41.4179 -113.4130 80° East 534 615 37,300 677 Climbing FlightAware ADS-B
Fri 03:39:14 PM 41.4308 -113.3100 80° East 535 616 37,700 716 Climbing FlightAware ADS-B
Fri 03:39:49 PM 41.4447 -113.1980 81° East 536 617 38,100 818 Climbing FlightAware ADS-B
Fri 03:40:20 PM 41.4576 -113.0940 81° East 536 617 38,600 857 Climbing FlightAware ADS-B
Fri 03:40:52 PM 41.4702 -112.9920 81° East 534 615 39,000 387 Climbing FlightAware ADS-B
Fri 03:41:22 PM 41.4821 -112.8940 81° East 529 609 39,000  Level FlightAware ADS-B
Fri 03:41:57 PM 41.4957 -112.7830 81° East 526 605 39,000  Level FlightAware ADS-B
Fri 03:42:28 PM 41.5074 -112.6850 81° East 527 606 39,000  Level FlightAware ADS-B
Fri 03:42:58 PM 41.5189 -112.5890 81° East 529 609 39,000  Level FlightAware ADS-B
Fri 03:43:31 PM 41.5317 -112.4810 81° East 529 609 39,000  Level FlightAware ADS-B
Fri 03:44:04 PM 41.5430 -112.3770 82° East 530 610 39,000  Level FlightAware ADS-B
Fri 03:44:34 PM 41.5533 -112.2770 82° East 532 612 39,000  Level FlightAware ADS-B
Fri 03:45:07 PM 41.5642 -112.1720 82° East 534 615 39,000  Level FlightAware ADS-B
Fri 03:45:40 PM 41.5752 -112.0640 82° East 536 617 39,000  Level FlightAware ADS-B
Fri 03:46:10 PM 41.5853 -111.9660 82° East 537 618 39,000  Level FlightAware ADS-B
Fri 03:46:40 PM 41.5954 -111.8660 82° East 539 620 39,000  Level FlightAware ADS-B
Fri 03:47:10 PM 41.6055 -111.7660 82° East 540 621 39,000  Level FlightAware ADS-B
Fri 03:47:41 PM 41.6156 -111.6660 82° East 540 621 39,000  Level FlightAware ADS-B
Fri 03:48:15 PM 41.6268 -111.5540 82° East 541 623 39,000  Level FlightAware ADS-B
Fri 03:48:50 PM 41.6381 -111.4380 83° East 541 623 39,000  Level FlightAware ADS-B
Fri 03:49:20 PM 41.6478 -111.3380 83° East 540 621 39,000  Level FlightAware ADS-B
Fri 03:49:51 PM 41.6575 -111.2370 83° East 541 623 39,000  Level FlightAware ADS-B
Fri 03:50:21 PM 41.6671 -111.1370 83° East 541 623 39,000  Level FlightAware ADS-B
Fri 03:50:51 PM 41.6766 -111.0370 83° East 542 624 39,000  Level FlightAware ADS-B
Fri 03:51:22 PM 41.6861 -110.9350 83° East 543 625 39,000  Level FlightAware ADS-B
Fri 03:51:52 PM 41.6953 -110.8360 83° East 544 626 39,000  Level FlightAware ADS-B
Fri 03:52:36 PM 41.7086 -110.6900 83° East 543 625 39,000  Level FlightAware ADS-B
Fri 03:53:35 PM 41.7233 -110.5250 83° East 541 623 39,000  Level Salt Lake Center
Fri 03:54:37 PM 41.7431 -110.3028 83° East 539 620 39,000  Level Salt Lake Center
Fri 03:55:39 PM 41.7600 -110.1114 83° East 540 621 39,000  Level Salt Lake Center
Fri 03:56:41 PM 41.7792 -109.8881 83° East 541 623 39,000  Level Salt Lake Center
Fri 03:57:43 PM 41.7942 -109.6967 84° East 540 621 39,000  Level Salt Lake Center
Fri 03:58:45 PM 41.8133 -109.4731 83° East 539 620 39,000  Level Salt Lake Center
Fri 03:59:47 PM 41.8292 -109.2806 84° East 539 620 39,000  Level Salt Lake Center
Fri 04:00:49 PM 41.8428 -109.0883 85° East 538 619 39,000  Level Salt Lake Center
Fri 04:01:51 PM 41.8603 -108.8636 84° East 539 620 39,000  Level Salt Lake Center
Fri 04:02:53 PM 41.8736 -108.6711 85° East 539 620 39,000  Level Salt Lake Center
Fri 04:03:55 PM 41.8892 -108.4464 85° East 540 621 39,000  Level Salt Lake Center
Fri 04:04:57 PM 41.9053 -108.2550 83° East 541 623 39,000  Level Salt Lake Center
Fri 04:05:59 PM 41.9186 -108.0286 85° East 547 629 39,000  Level Salt Lake Center
Fri 04:07:01 PM 41.9314 -107.8333 85° East 549 632 39,000  Level Salt Lake Center
Fri 04:08:03 PM 41.9447 -107.6103 85° East 540 621 39,000  Level Salt Lake Center
Fri 04:14:16 PM 42.0190 -106.3550 85° East 545 627 39,000  Level FlightAware ADS-B
Fri 04:14:47 PM 42.0240 -106.2450 86° East 545 627 39,000  Level FlightAware ADS-B
Fri 04:15:25 PM 42.0310 -106.1180 86° East 545 627 39,000  Level FlightAware ADS-B
Fri 04:16:02 PM 42.0360 -106.0060 87° East 545 627 39,000  Level FlightAware ADS-B
Fri 04:16:37 PM 42.0430 -105.8800 86° East 546 628 39,000  Level FlightAware ADS-B
Fri 04:17:18 PM 42.0490 -105.7510 86° East 546 628 39,000  Level FlightAware ADS-B
Fri 04:17:50 PM 42.0540 -105.6320 87° East 546 628 39,000  Level FlightAware ADS-B
Fri 04:18:27 PM 42.0600 -105.5250 86° East 546 628 39,000  Level FlightAware ADS-B
Fri 04:19:01 PM 42.0650 -105.3870 87° East 547 629 39,000  Level FlightAware ADS-B
Fri 04:19:37 PM 42.0700 -105.2640 87° East 549 632 39,000  Level FlightAware ADS-B
Fri 04:20:01 PM 42.0747 -105.1820 86° East 549 632 39,000  Level FlightAware ADS-B
Fri 04:20:31 PM 42.0823 -105.0790 84° East 552 635 39,000  Level FlightAware ADS-B
Fri 04:21:04 PM 42.0917 -104.9700 83° East 549 632 39,000  Level FlightAware ADS-B
Fri 04:21:35 PM 42.1009 -104.8650 83° East 549 632 39,000  Level FlightAware ADS-B
Fri 04:22:06 PM 42.1101 -104.7590 83° East 553 636 39,000  Level FlightAware ADS-B
Fri 04:22:36 PM 42.1190 -104.6560 83° East 554 638 39,000  Level FlightAware ADS-B
Fri 04:23:09 PM 42.1287 -104.5420 83° East 554 638 39,000  Level FlightAware ADS-B
Fri 04:23:40 PM 42.1374 -104.4390 83° East 551 634 39,000  Level FlightAware ADS-B
Fri 04:24:13 PM 42.1467 -104.3270 84° East 550 633 39,000  Level FlightAware ADS-B
Fri 04:24:43 PM 42.1551 -104.2240 84° East 550 633 39,000  Level FlightAware ADS-B
Fri 04:25:23 PM 42.1663 -104.0860 84° East 549 632 39,000  Level FlightAware ADS-B
Fri 04:25:54 PM 42.1745 -103.9830 84° East 548 631 39,000  Level FlightAware ADS-B
Fri 04:26:24 PM 42.1826 -103.8800 84° East 548 631 39,000  Level FlightAware ADS-B
Fri 04:26:54 PM 42.1905 -103.7780 84° East 549 632 39,000  Level FlightAware ADS-B
Fri 04:27:25 PM 42.1984 -103.6760 84° East 548 631 39,000  Level FlightAware ADS-B
Fri 04:27:55 PM 42.2062 -103.5740 84° East 549 632 39,000  Level FlightAware ADS-B
Fri 04:28:25 PM 42.2140 -103.4690 84° East 549 632 39,000  Level FlightAware ADS-B
Fri 04:28:56 PM 42.2217 -103.3660 84° East 549 632 39,000  Level FlightAware ADS-B
Fri 04:29:29 PM 42.2300 -103.2520 84° East 549 632 39,000  Level FlightAware ADS-B
Fri 04:30:05 PM 42.2388 -103.1320 84° East 550 633 39,000  Level FlightAware ADS-B
Fri 04:30:39 PM 42.2471 -103.0150 84° East 548 631 39,000  Level FlightAware ADS-B
Fri 04:31:10 PM 42.2544 -102.9110 85° East 549 632 39,000  Level FlightAware ADS-B
Fri 04:31:40 PM 42.2617 -102.8060 85° East 549 632 39,000  Level FlightAware ADS-B
Fri 04:32:11 PM 42.2687 -102.7040 85° East 550 633 39,000  Level FlightAware ADS-B
Fri 04:32:43 PM 42.2762 -102.5920 85° East 550 633 39,000  Level FlightAware ADS-B
Fri 04:33:13 PM 42.2830 -102.4890 85° East 550 633 39,000  Level FlightAware ADS-B
Fri 04:33:48 PM 42.2908 -102.3710 85° East 551 634 39,000  Level FlightAware ADS-B
Fri 04:34:22 PM 42.2982 -102.2560 85° East 551 634 39,000  Level FlightAware ADS-B
Fri 04:35:11 PM 42.3089 -102.0880 85° East 551 634 39,000  Level FlightAware ADS-B
Fri 04:35:51 PM 42.3178 -101.9633 85° East 553 636 39,000  Level Denver Center
Fri 04:36:53 PM 42.3286 -101.7694 86° East 549 632 39,000  Level Denver Center
Fri 04:37:56 PM 42.3425 -101.5403 85° East 546 628 39,000  Level Denver Center
Fri 04:38:58 PM 42.3533 -101.3439 86° East 547 629 39,000  Level Denver Center
Fri 04:40:00 PM 42.3658 -101.1131 86° East 549 632 39,000  Level Denver Center
Fri 04:41:02 PM 42.3758 -100.9153 86° East 550 633 39,000  Level Denver Center
Fri 04:42:04 PM 42.3878 -100.6836 86° East 551 634 39,000  Level Denver Center
Fri 04:43:06 PM 42.3972 -100.4872 86° East 549 632 39,000  Level Denver Center
Fri 04:44:08 PM 42.3953 -100.2892 91° East 552 635 39,000  Level Denver Center
Fri 04:45:10 PM 42.3822 -100.0603 94° East 549 632 39,000  Level Denver Center
Fri 04:46:12 PM 42.3703 -99.8636 95° East 547 629 39,000  Level Denver Center
Fri 04:46:47 PM 42.3639 -99.7556 95° East 548 631 39,000  Level Minneapolis Center
Fri 04:47:49 PM 42.3494 -99.5086 94° East 548 631 39,000  Level Minneapolis Center
Fri 04:48:51 PM 42.3378 -99.3036 94° East 547 629 39,000  Level Minneapolis Center
Fri 04:49:53 PM 42.3269 -99.0978 94° East 547 629 39,000  Level Minneapolis Center
Fri 04:50:55 PM 42.3156 -98.8944 94° East 543 625 39,000  Level Minneapolis Center
Fri 04:56:50 PM 42.2470 -97.6790 94° East 541 623 39,000  Level FlightAware ADS-B
Fri 04:57:35 PM 42.2380 -97.5240 94° East 541 623 39,000  Level FlightAware ADS-B
Fri 04:58:25 PM 42.2300 -97.3600 94° East 541 623 39,000  Level FlightAware ADS-B
Fri 04:59:00 PM 42.2240 -97.2420 94° East 542 624 39,000  Level FlightAware ADS-B
Fri 04:59:40 PM 42.2180 -97.1080 93° East 542 624 39,000  Level FlightAware ADS-B
Fri 04:59:55 PM 42.2150 -97.0540 94° East 541 623 39,000  Level FlightAware ADS-B
Fri 05:01:01 PM 42.2050 -96.8290 93° East 541 623 39,000  Level FlightAware ADS-B
Fri 05:01:33 PM 42.2000 -96.7230 94° East 541 623 39,000  Level FlightAware ADS-B
Fri 05:02:26 PM 42.1930 -96.5610 93° East 541 623 39,000  Level FlightAware ADS-B
Fri 05:03:11 PM 42.1880 -96.4320 93° East 541 623 39,000  Level FlightAware ADS-B
Fri 05:03:41 PM 42.1790 -96.2930 95° East 541 623 39,000  Level FlightAware ADS-B
Fri 05:04:21 PM 42.1730 -96.1610 93° East 542 624 39,000  Level FlightAware ADS-B
Fri 05:04:57 PM 42.1670 -96.0370 94° East 541 623 39,000  Level FlightAware ADS-B
Fri 05:05:33 PM 42.1610 -95.9190 94° East 541 623 39,000  Level FlightAware ADS-B
Fri 05:06:08 PM 42.1550 -95.7990 94° East 541 623 39,000  Level FlightAware ADS-B
Fri 05:06:45 PM 42.1490 -95.6730 94° East 540 621 39,000  Level FlightAware ADS-B
Fri 05:07:09 PM 42.1450 -95.5940 94° East 539 620 39,000  Level FlightAware ADS-B
Fri 05:07:50 PM 42.1450 -95.4700 90° East 535 616 39,000  Level FlightAware ADS-B
Fri 05:08:27 PM 42.1530 -95.3350 85° East 529 609 39,000  Level FlightAware ADS-B
Fri 05:09:01 PM 42.1610 -95.2260 84° East 530 610 39,000  Level FlightAware ADS-B
Fri 05:09:39 PM 42.1700 -95.0990 84° East 530 610 39,000  Level FlightAware ADS-B
Fri 05:10:14 PM 42.1790 -94.9870 84° East 529 609 39,000  Level FlightAware ADS-B
Fri 05:10:51 PM 42.1870 -94.8670 85° East 528 608 39,000  Level FlightAware ADS-B
Fri 05:11:27 PM 42.1960 -94.7510 84° East 528 608 39,000  Level FlightAware ADS-B
Fri 05:11:56 PM 42.2020 -94.6750 84° East 528 608 39,000  Level FlightAware ADS-B
Fri 05:12:36 PM 42.2130 -94.5230 84° East 527 606 39,000  Level FlightAware ADS-B
Fri 05:13:08 PM 42.2210 -94.4160 84° East 527 606 39,000  Level FlightAware ADS-B
Fri 05:13:44 PM 42.2290 -94.2970 85° East 528 608 39,000  Level FlightAware ADS-B
Fri 05:14:20 PM 42.2370 -94.1850 84° East 529 609 39,000  Level FlightAware ADS-B
Fri 05:14:56 PM 42.2460 -94.0630 84° East 529 609 39,000  Level FlightAware ADS-B
Fri 05:15:28 PM 42.2530 -93.9570 85° East 529 609 39,000  Level FlightAware ADS-B
Fri 05:16:04 PM 42.2610 -93.8410 85° East 530 610 39,000  Level FlightAware ADS-B
Fri 05:16:40 PM 42.2690 -93.7210 85° East 530 610 39,000  Level FlightAware ADS-B
Fri 05:17:16 PM 42.2760 -93.6050 85° East 531 611 39,000  Level FlightAware ADS-B
Fri 05:17:48 PM 42.2830 -93.4980 85° East 532 612 39,000  Level FlightAware ADS-B
Fri 05:18:24 PM 42.2910 -93.3790 85° East 533 613 39,000  Level FlightAware ADS-B
Fri 05:19:00 PM 42.2980 -93.2610 85° East 533 613 39,000  Level FlightAware ADS-B
Fri 05:19:32 PM 42.3050 -93.1520 85° East 533 613 39,000  Level FlightAware ADS-B
Fri 05:20:00 PM 42.3100 -93.0640 86° East 533 613 39,000  Level FlightAware ADS-B
Fri 05:20:55 PM 42.3210 -92.8830 85° East 534 615 39,000  Level FlightAware ADS-B
Fri 05:21:27 PM 42.3270 -92.7730 86° East 533 613 39,000  Level FlightAware ADS-B
Fri 05:22:02 PM 42.3340 -92.6560 85° East 533 613 39,000  Level FlightAware ADS-B
Fri 05:22:36 PM 42.3400 -92.5430 86° East 533 613 39,000  Level FlightAware ADS-B
Fri 05:23:44 PM 42.3520 -92.3240 86° East 532 612 39,000  Level FlightAware ADS-B
Fri 05:24:19 PM 42.3580 -92.2110 86° East 531 611 39,000  Level FlightAware ADS-B
Fri 05:24:53 PM 42.3640 -92.0930 86° East 530 610 39,000  Level FlightAware ADS-B
Fri 05:25:26 PM 42.3700 -91.9800 86° East 531 611 39,000  Level FlightAware ADS-B
Fri 05:26:05 PM 42.3760 -91.8550 86° East 531 611 39,000  Level FlightAware ADS-B
Fri 05:26:38 PM 42.3810 -91.7420 87° East 531 611 39,000  Level FlightAware ADS-B
Fri 05:27:14 PM 42.3870 -91.6250 86° East 531 611 39,000  Level FlightAware ADS-B
Fri 05:27:50 PM 42.3920 -91.5110 87° East 531 611 39,000  Level FlightAware ADS-B
Fri 05:28:18 PM 42.3970 -91.4130 86° East 530 610 39,000  Level FlightAware ADS-B
Fri 05:28:56 PM 42.4020 -91.2890 87° East 530 610 39,000  Level FlightAware ADS-B
Fri 05:29:34 PM 42.4080 -91.1620 86° East 530 610 39,000  Level FlightAware ADS-B
Fri 05:30:08 PM 42.4130 -91.0490 87° East 530 610 39,000  Level FlightAware ADS-B
Fri 05:30:42 PM 42.4170 -90.9350 87° East 530 610 39,000  Level FlightAware ADS-B
Fri 05:31:18 PM 42.4220 -90.8230 87° East 530 610 39,000  Level FlightAware ADS-B
Fri 05:31:53 PM 42.4270 -90.7040 87° East 530 610 39,000  Level FlightAware ADS-B
Fri 05:32:26 PM 42.4310 -90.5970 87° East 530 610 39,000  Level FlightAware ADS-B
Fri 05:33:05 PM 42.4360 -90.4660 87° East 530 610 39,000  Level FlightAware ADS-B
Fri 05:33:38 PM 42.4390 -90.3620 88° East 529 609 39,000  Level FlightAware ADS-B
Fri 05:34:14 PM 42.4440 -90.2400 87° East 529 609 39,000  Level FlightAware ADS-B
Fri 05:34:50 PM 42.4480 -90.1170 87° East 529 609 39,000  Level FlightAware ADS-B
Fri 05:35:23 PM 42.4510 -90.0110 88° East 529 609 39,000  Level FlightAware ADS-B
Fri 05:35:59 PM 42.4550 -89.8980 87° East 529 609 39,000  Level FlightAware ADS-B
Fri 05:36:38 PM 42.4590 -89.7610 88° East 530 610 39,000  Level FlightAware ADS-B
Fri 05:37:14 PM 42.4630 -89.6410 87° East 530 610 39,000  Level FlightAware ADS-B
Fri 05:37:50 PM 42.4670 -89.5230 87° East 529 609 39,000  Level FlightAware ADS-B
Fri 05:38:27 PM 42.4700 -89.4000 88° East 529 609 39,000  Level FlightAware ADS-B
Fri 05:38:56 PM 42.4730 -89.3030 88° East 528 608 39,000  Level FlightAware ADS-B
Fri 05:39:34 PM 42.4760 -89.1790 88° East 528 608 39,000  Level FlightAware ADS-B
Fri 05:40:26 PM 42.4800 -89.0220 88° East 527 606 39,000  Level FlightAware ADS-B
Fri 05:41:02 PM 42.4830 -88.8900 88° East 526 605 39,000  Level FlightAware ADS-B
Fri 05:41:38 PM 42.4850 -88.7760 89° East 526 605 39,000  Level FlightAware ADS-B
Fri 05:42:12 PM 42.4880 -88.6690 88° East 526 605 39,000  Level FlightAware ADS-B
Fri 05:42:24 PM 42.4890 -88.6260 88° East 526 605 39,000  Level FlightAware ADS-B
Fri 05:43:30 PM 42.4930 -88.4070 89° East 525 604 39,000  Level FlightAware ADS-B
Fri 05:44:09 PM 42.4950 -88.2780 89° East 525 604 39,000  Level FlightAware ADS-B
Fri 05:44:45 PM 42.4980 -88.1570 88° East 524 603 39,000  Level FlightAware ADS-B
Fri 05:45:21 PM 42.4990 -88.0400 89° East 524 603 39,000  Level FlightAware ADS-B
Fri 05:45:54 PM 42.5010 -87.9320 89° East 526 605 39,000  Level FlightAware ADS-B
Fri 05:46:27 PM 42.5000 -87.8260 91° East 526 605 39,000  Level FlightAware ADS-B
Fri 05:47:06 PM 42.5000 -87.6960 90° East 525 604 39,000  Level FlightAware ADS-B
Fri 05:47:39 PM 42.4990 -87.5900 91° East 525 604 39,000  Level FlightAware ADS-B
Fri 05:48:15 PM 42.4990 -87.4710 90° East 525 604 39,000  Level FlightAware ADS-B
Fri 05:48:49 PM 42.4980 -87.3590 91° East 525 604 39,000  Level FlightAware ADS-B
Fri 05:49:28 PM 42.4980 -87.2320 90° East 523 602 39,000  Level FlightAware ADS-B
Fri 05:50:00 PM 42.4970 -87.1320 91° East 522 601 39,000  Level FlightAware ADS-B
Fri 05:50:36 PM 42.4960 -87.0110 91° East 520 598 39,000  Level FlightAware ADS-B
Fri 05:51:12 PM 42.4950 -86.8990 91° East 519 597 39,000  Level FlightAware ADS-B
Fri 05:51:46 PM 42.4940 -86.7840 91° East 519 597 39,000  Level FlightAware ADS-B
Fri 05:52:22 PM 42.4930 -86.6640 91° East 518 596 39,000  Level FlightAware ADS-B
Fri 05:52:54 PM 42.4920 -86.5740 91° East 518 596 39,000  Level FlightAware ADS-B
Fri 05:53:30 PM 42.4900 -86.4500 91° East 518 596 39,000  Level FlightAware ADS-B
Fri 05:54:06 PM 42.4880 -86.3350 91° East 517 595 39,000  Level FlightAware ADS-B
Fri 05:54:42 PM 42.4870 -86.2170 91° East 517 595 39,000  Level FlightAware ADS-B
Fri 05:55:10 PM 42.4850 -86.1290 92° East 516 594 39,000  Level FlightAware ADS-B
Fri 05:55:51 PM 42.4830 -85.9990 91° East 516 594 39,000  Level FlightAware ADS-B
Fri 05:56:26 PM 42.4810 -85.8810 91° East 515 593 39,000  Level FlightAware ADS-B
Fri 05:57:00 PM 42.4790 -85.7740 91° East 515 593 39,000  Level FlightAware ADS-B
Fri 05:57:36 PM 42.4770 -85.6570 91° East 514 592 39,000  Level FlightAware ADS-B
Fri 05:58:08 PM 42.4750 -85.5570 92° East 513 590 39,000  Level FlightAware ADS-B
Fri 05:58:46 PM 42.4720 -85.4340 92° East 513 590 39,000  Level FlightAware ADS-B
Fri 05:59:22 PM 42.4690 -85.3170 92° East 512 589 39,000  Level FlightAware ADS-B
Fri 05:59:52 PM 42.4670 -85.2230 92° East 511 588 39,000  Level FlightAware ADS-B
Fri 06:00:30 PM 42.4650 -85.1170 91° East 511 588 39,000  Level FlightAware ADS-B
Fri 06:01:02 PM 42.4620 -85.0010 92° East 511 588 39,000  Level FlightAware ADS-B
Fri 06:01:34 PM 42.4590 -84.8990 92° East 510 587 39,000  Level FlightAware ADS-B
Fri 06:02:10 PM 42.4560 -84.7830 92° East 510 587 39,000  Level FlightAware ADS-B
Fri 06:02:39 PM 42.4530 -84.6880 92° East 510 587 39,000  Level FlightAware ADS-B
Fri 06:03:08 PM 42.4500 -84.5950 92° East 510 587 39,000  Level FlightAware ADS-B
Fri 06:04:12 PM 42.4390 -84.3920 94° East 512 589 39,000  Level FlightAware ADS-B
Fri 06:04:48 PM 42.4310 -84.2760 95° East 512 589 39,000  Level FlightAware ADS-B
Fri 06:05:24 PM 42.4240 -84.1600 95° East 511 588 39,000  Level FlightAware ADS-B
Fri 06:05:58 PM 42.4180 -84.0510 94° East 512 589 39,000  Level FlightAware ADS-B
Fri 06:06:30 PM 42.4120 -83.9500 95° East 513 590 39,000  Level FlightAware ADS-B
Fri 06:07:06 PM 42.4040 -83.8350 95° East 514 592 39,000  Level FlightAware ADS-B
Fri 06:07:40 PM 42.3980 -83.7280 94° East 515 593 39,000  Level FlightAware ADS-B
Fri 06:08:16 PM 42.3900 -83.6110 95° East 518 596 39,000  Level FlightAware ADS-B
Fri 06:08:52 PM 42.3820 -83.4950 95° East 520 598 39,000  Level FlightAware ADS-B
Fri 06:09:24 PM 42.3760 -83.3920 94° East 522 601 39,000  Level FlightAware ADS-B
Fri 06:10:02 PM 42.3670 -83.2670 96° East 523 602 39,000  Level FlightAware ADS-B
Fri 06:10:36 PM 42.3600 -83.1590 95° East 524 603 39,000  Level FlightAware ADS-B
Fri 06:11:04 PM 42.3530 -83.0670 96° East 524 603 39,000  Level FlightAware ADS-B
Fri 06:11:45 PM 42.3440 -82.9380 95° East 526 605 39,000  Level FlightAware ADS-B
Fri 06:12:20 PM 42.3350 -82.8170 96° East 527 606 39,000  Level FlightAware ADS-B
Fri 06:12:56 PM 42.3270 -82.7020 95° East 528 608 39,000  Level FlightAware ADS-B
Fri 06:13:34 PM 42.3170 -82.5750 96° East 528 608 39,000  Level FlightAware ADS-B
Fri 06:14:01 PM 42.3110 -82.4910 95° East 529 609 39,000  Level FlightAware ADS-B
Fri 06:14:39 PM 42.3010 -82.3630 96° East 530 610 39,000  Level FlightAware ADS-B
Fri 06:15:17 PM 42.2920 -82.2390 96° East 530 610 39,000  Level FlightAware ADS-B
Fri 06:15:58 PM 42.2810 -82.1050 96° East 531 611 39,000  Level FlightAware ADS-B
Fri 06:16:29 PM 42.2750 -82.0220 96° East 532 612 39,000  Level FlightAware ADS-B
Fri 06:17:11 PM 42.2640 -81.8880 96° East 533 613 39,000  Level FlightAware ADS-B
Fri 06:17:49 PM 42.2540 -81.7650 96° East 534 615 39,000  Level FlightAware ADS-B
Fri 06:18:22 PM 42.2440 -81.6450 96° East 535 616 39,000  Level FlightAware ADS-B
Fri 06:19:04 PM 42.2330 -81.5140 96° East 535 616 39,000  Level FlightAware ADS-B
Fri 06:19:42 PM 42.2220 -81.3860 97° East 536 617 39,000  Level FlightAware ADS-B
Fri 06:20:26 PM 42.2120 -81.2710 97° East 536 617 39,000  Level FlightAware ADS-B
Fri 06:21:04 PM 42.1980 -81.1090 97° East 538 619 39,000  Level FlightAware ADS-B
Fri 06:21:37 PM 42.1880 -80.9940 97° East 538 619 39,000 -329 Level FlightAware ADS-B
Fri 06:22:17 PM 42.1760 -80.8580 97° East 538 619 38,600 -1,125 Descending FlightAware ADS-B
Fri 06:22:57 PM 42.1640 -80.7270 97° East 550 633 37,500 -1,125 Descending FlightAware ADS-B
Fri 06:23:37 PM 42.1530 -80.5990 97° East 554 638 37,100 -711 Descending FlightAware ADS-B
Fri 06:24:13 PM 42.1380 -80.4660 99° East 560 644 36,600 -1,043 Descending FlightAware ADS-B
Fri 06:24:46 PM 42.1250 -80.3610 99° East 562 647 35,900 -1,026 Descending FlightAware ADS-B
Fri 06:25:29 PM 42.1100 -80.2480 100° East 562 647 35,300 -692 Descending FlightAware ADS-B
Fri 06:26:04 PM 42.0900 -80.0880 100° East 555 639 35,000 -247 Descending FlightAware ADS-B
Fri 06:26:42 PM 42.0710 -79.9450 100° East 549 632 35,000  Level FlightAware ADS-B
Fri 06:27:16 PM 42.0570 -79.8350 100° East 546 628 35,000  Level FlightAware ADS-B
Fri 06:27:52 PM 42.0420 -79.7130 99° East 543 625 35,000  Level FlightAware ADS-B
Fri 06:28:28 PM 42.0270 -79.5950 100° East 541 623 35,000  Level FlightAware ADS-B
Fri 06:29:00 PM 42.0130 -79.4870 100° East 539 620 35,000  Level FlightAware ADS-B
Fri 06:29:34 PM 41.9980 -79.3740 100° East 538 619 35,000  Level FlightAware ADS-B
Fri 06:30:10 PM 41.9820 -79.2550 100° East 537 618 35,000  Level FlightAware ADS-B
Fri 06:30:48 PM 41.9650 -79.1300 100° East 536 617 35,000  Level FlightAware ADS-B
Fri 06:31:24 PM 41.9490 -79.0130 100° East 535 616 35,000  Level FlightAware ADS-B
Fri 06:31:56 PM 41.9350 -78.9100 100° East 535 616 35,000  Level FlightAware ADS-B
Fri 06:32:32 PM 41.9190 -78.7920 100° East 536 617 35,000  Level FlightAware ADS-B
Fri 06:32:56 PM 41.9070 -78.7110 101° East 538 619 35,000  Level FlightAware ADS-B
Fri 06:33:32 PM 41.8910 -78.5970 101° East 539 620 35,000  Level FlightAware ADS-B
Fri 06:34:09 PM 41.8740 -78.4740 100° East 539 620 35,000  Level FlightAware ADS-B
Fri 06:34:41 PM 41.8590 -78.3710 101° East 539 620 35,000  Level FlightAware ADS-B
Fri 06:35:21 PM 41.8400 -78.2370 101° East 540 621 35,000  Level FlightAware ADS-B
Fri 06:35:55 PM 41.8260 -78.1410 101° East 542 624 35,000  Level FlightAware ADS-B
Fri 06:36:25 PM 41.8130 -78.0480 101° East 543 625 35,000  Level FlightAware ADS-B
Fri 06:37:02 PM 41.7930 -77.9110 101° East 545 627 35,000  Level FlightAware ADS-B
Fri 06:37:43 PM 41.7740 -77.7800 101° East 547 629 35,000  Level FlightAware ADS-B
Fri 06:38:12 PM 41.7600 -77.6860 101° East 548 631 35,000  Level FlightAware ADS-B
Fri 06:38:47 PM 41.7410 -77.5640 102° East 549 632 35,000  Level FlightAware ADS-B
Fri 06:39:27 PM 41.7220 -77.4350 101° East 549 632 35,000  Level FlightAware ADS-B
Fri 06:41:21 PM 41.6720 -77.1000 101° East 549 632 35,000  Level FlightAware ADS-B
Fri 06:41:59 PM 41.6181 -76.9257 112° Southeast 551 634 35,000  Level FlightAware ADS-B
Fri 06:42:35 PM 41.5865 -76.8107 110° East 550 633 35,000  Level FlightAware ADS-B
Fri 06:43:08 PM 41.5580 -76.7069 110° East 550 633 35,000  Level FlightAware ADS-B
Fri 06:43:40 PM 41.5296 -76.6040 110° East 548 631 35,000  Level FlightAware ADS-B
Fri 06:44:13 PM 41.5013 -76.5020 110° East 547 629 35,000 -277 Level FlightAware ADS-B
Fri 06:44:45 PM 41.4727 -76.3991 110° East 549 632 34,700 -571 Descending FlightAware ADS-B
Fri 06:45:16 PM 41.4453 -76.3007 110° East 546 628 34,400 -563 Descending FlightAware ADS-B
Fri 06:45:49 PM 41.4170 -76.1996 110° East 546 628 34,100 -1,500 Descending FlightAware ADS-B
Fri 06:46:24 PM 41.3853 -76.0861 110° East 552 635 32,700 -2,455 Descending FlightAware ADS-B
Fri 06:46:55 PM 41.3584 -75.9902 110° East 549 632 31,400 -2,656 Descending FlightAware ADS-B
Fri 06:47:25 PM 41.3310 -75.8936 111° Southeast 545 627 30,000 -2,419 Descending FlightAware ADS-B
Fri 06:47:57 PM 41.3037 -75.7973 111° Southeast 535 616 28,900 -2,129 Descending FlightAware ADS-B
Fri 06:48:27 PM 41.2767 -75.7048 111° Southeast 529 609 27,800 -2,164 Descending FlightAware ADS-B
Fri 06:48:58 PM 41.2478 -75.6140 113° Southeast 520 598 26,700 -2,164 Descending FlightAware ADS-B
Fri 06:49:28 PM 41.2186 -75.5259 114° Southeast 509 586 25,600 -2,557 Descending FlightAware ADS-B
Fri 06:49:59 PM 41.1892 -75.4382 114° Southeast 505 581 24,100 -2,419 Descending FlightAware ADS-B
Fri 06:50:30 PM 41.1600 -75.3516 114° Southeast 496 571 23,100 -1,048 Descending FlightAware ADS-B
Fri 06:51:02 PM 41.1308 -75.2655 114° Southeast 486 559 23,000 -95 Descending FlightAware ADS-B
Fri 06:51:33 PM 41.1026 -75.1825 114° Southeast 491 565 23,000  Level FlightAware ADS-B
Fri 06:52:03 PM 41.0745 -75.0997 114° Southeast 492 566 23,000  Level FlightAware ADS-B
Fri 06:52:35 PM 41.0448 -75.0123 114° Southeast 490 564 23,000  Level FlightAware ADS-B
Fri 06:53:08 PM 41.0142 -74.9216 114° Southeast 495 570 23,000  Level FlightAware ADS-B
Fri 06:53:30 PM 40.9978 -74.8575 109° East 498 573 23,000  Level FlightAware ADS-B
Fri 06:53:36 PM 40.9944 -74.8395 104° East 498 573 23,000 -167 Level FlightAware ADS-B
Fri 06:54:06 PM 40.9822 -74.7497 100° East 492 566 22,900 -677 Descending FlightAware ADS-B
Fri 06:54:38 PM 40.9721 -74.6561 98° East 473 544 22,300 -1,143 Descending FlightAware ADS-B
Fri 06:55:09 PM 40.9634 -74.5714 98° East 455 524 21,700 -1,180 Descending FlightAware ADS-B
Fri 06:55:39 PM 40.9548 -74.4905 98° East 437 503 21,100 -1,574 Descending FlightAware ADS-B
Fri 06:56:10 PM 40.9460 -74.4093 98° East 430 495 20,100 -1,966 Descending FlightAware ADS-B
Fri 06:56:37 PM 40.9365 -74.3389 100° East 425 489 19,200 -1,650 Descending FlightAware ADS-B
Fri 06:56:50 PM 40.9273 -74.3080 111° Southeast 416 479 19,000 -462 Descending FlightAware ADS-B
Fri 06:57:03 PM 40.9147 -74.2811 122° Southeast 415 478 19,000  Level FlightAware ADS-B
Fri 06:57:14 PM 40.9010 -74.2603 131° Southeast 412 474 19,000  Level FlightAware ADS-B
Fri 06:57:20 PM 40.8925 -74.2499 137° Southeast 412 474 19,000  Level FlightAware ADS-B
Fri 06:57:50 PM 40.8476 -74.2012 141° Southeast 414 476 19,000 -269 Level FlightAware ADS-B
Fri 06:58:27 PM 40.7931 -74.1432 141° Southeast 410 472 18,700 -592 Descending FlightAware ADS-B
Fri 06:59:01 PM 40.7449 -74.0918 141° Southeast 385 443 18,300 -712 Descending FlightAware ADS-B
Fri 06:59:26 PM 40.7113 -74.0554 141° Southeast 369 425 18,000 -1,034 Descending FlightAware ADS-B
Fri 06:59:59 PM 40.6691 -74.0078 139° Southeast 359 413 17,300 -1,429 Descending FlightAware ADS-B
Fri 07:00:29 PM 40.6313 -73.9651 139° Southeast 355 409 16,500 -1,684 Descending FlightAware ADS-B
Fri 07:00:56 PM 40.5942 -73.9384 151° Southeast 334 384 15,700 -1,789 Descending FlightAware ADS-B
Fri 07:01:26 PM 40.5513 -73.9163 159° South 326 375 14,800 -1,915 Descending FlightAware ADS-B
Fri 07:01:43 PM 40.5273 -73.9048 160° South 322 371 14,200 -2,160 Descending FlightAware ADS-B
Fri 07:02:16 PM 40.4815 -73.8835 161° South 324 373 13,000 -2,095 Descending FlightAware ADS-B
Fri 07:02:46 PM 40.4391 -73.8641 161° South 318 366 12,000 -1,925 Descending FlightAware ADS-B
Fri 07:03:09 PM 40.4081 -73.8494 160° South 319 367 11,300 -1,925 Descending FlightAware ADS-B
Fri 07:03:39 PM 40.3675 -73.8227 153° Southeast 319 367 10,300 -1,957 Descending FlightAware ADS-B
Fri 07:03:55 PM 40.3470 -73.8090 153° Southeast 315 362 9,800 -1,714 Descending FlightAware ADS-B
Fri 07:04:07 PM 40.3317 -73.7982 152° Southeast 312 359 9,500 -1,429 Descending FlightAware ADS-B
Fri 07:04:16 PM 40.3211 -73.7865 140° Southeast 314 361 9,300 -1,333 Descending FlightAware ADS-B
Fri 07:04:25 PM 40.3135 -73.7728 126° Southeast 315 362 9,100 -1,500 Descending FlightAware ADS-B
Fri 07:04:36 PM 40.3081 -73.7535 110° East 318 366 8,800 -1,667 Descending FlightAware ADS-B
Fri 07:04:43 PM 40.3065 -73.7410 100° East 318 366 8,600 -1,895 Descending FlightAware ADS-B
Fri 07:04:55 PM 40.3052 -73.7181 94° East 320 368 8,200 -2,250 Descending FlightAware ADS-B
Fri 07:04:59 PM 40.3057 -73.7104 85° East 321 369 8,000 -2,182 Descending FlightAware ADS-B
Fri 07:05:06 PM 40.3083 -73.6965 76° East 321 369 7,800 -1,714 Descending FlightAware ADS-B
Fri 07:05:13 PM 40.3121 -73.6851 66° East 315 362 7,600 -1,385 Descending FlightAware ADS-B
Fri 07:05:19 PM 40.3166 -73.6742 62° Northeast 312 359 7,500 -1,636 Descending FlightAware ADS-B
Fri 07:05:35 PM 40.3280 -73.6493 59° Northeast 307 353 7,000 -1,818 Descending FlightAware ADS-B
Fri 07:05:52 PM 40.3452 -73.6284 43° Northeast 296 341 6,500 -1,444 Descending FlightAware ADS-B
Fri 07:06:29 PM 40.3877 -73.5948 31° Northeast 292 336 5,700 -1,319 Descending FlightAware ADS-B
Fri 07:07:23 PM 40.4490 -73.5480 30° Northeast 288 331 4,500 -1,297 Descending FlightAware ADS-B
Fri 07:07:43 PM 40.4710 -73.5320 29° Northeast 285 328 4,100 -789 Descending FlightAware ADS-B
Fri 07:08:01 PM 40.4960 -73.5210 18° North 286 329 4,000 -150 Descending FlightAware ADS-B
Fri 07:08:23 PM 40.5220 -73.5090 19° North 285 328 4,000  Level FlightAware ADS-B
Fri 07:08:47 PM 40.5520 -73.4940 21° North 286 329 4,000  Level FlightAware ADS-B
Fri 07:09:05 PM 40.5760 -73.4820 21° North 285 328 4,000  Level FlightAware ADS-B
Fri 07:09:17 PM 40.5880 -73.4760 21° North 281 323 4,000  Level FlightAware ADS-B
Fri 07:09:39 PM 40.6150 -73.4620 21° North 260 299 4,000  Level FlightAware ADS-B
Fri 07:10:03 PM 40.6410 -73.4500 19° North 240 276 4,000  Level FlightAware ADS-B
Fri 07:10:14 PM 40.6520 -73.4470 12° North 222 255 4,000 167 Level FlightAware ADS-B
Fri 07:10:39 PM 40.6730 -73.4600 335° Northwest 197 227 4,100  Climbing FlightAware ADS-B
Fri 07:10:59 PM 40.6870 -73.4750 321° Northwest 189 217 4,000 -600 Descending FlightAware ADS-B
Fri 07:11:19 PM 40.7010 -73.4890 323° Northwest 182 209 3,700 -878 Descending FlightAware ADS-B
Fri 07:11:40 PM 40.7120 -73.5010 320° Northwest 181 208 3,400 -878 Descending FlightAware ADS-B
Fri 07:12:00 PM 40.7260 -73.5150 323° Northwest 178 205 3,100 -878 Descending FlightAware ADS-B
Fri 07:12:21 PM 40.7410 -73.5300 323° Northwest 170 196 2,800 -769 Descending FlightAware ADS-B
Fri 07:12:39 PM 40.7520 -73.5410 323° Northwest 170 196 2,600 -833 Descending FlightAware ADS-B
Fri 07:12:57 PM 40.7630 -73.5530 320° Northwest 170 196 2,300 -947 Descending FlightAware ADS-B
Fri 07:13:17 PM 40.7750 -73.5660 321° Northwest 168 193 2,000 -643 Descending FlightAware ADS-B
Fri 07:13:25 PM 40.7800 -73.5730 313° West 168 193 2,000  Level FlightAware ADS-B
Fri 07:13:36 PM 40.7820 -73.5820 286° West 171 197 2,000  Level FlightAware ADS-B
Fri 07:13:59 PM 40.7850 -73.6060 279° West 161 185 2,000  Level FlightAware ADS-B
Fri 07:14:31 PM 40.7800 -73.6350 257° West 161 185 2,000  Level FlightAware ADS-B
Fri 07:14:56 PM 40.7690 -73.6540 233° Southwest 165 190 2,000  Level FlightAware ADS-B
Fri 07:15:11 PM 40.7590 -73.6650 220° Southwest 167 192 2,000  Level FlightAware ADS-B
Fri 07:15:31 PM 40.7460 -73.6760 213° Southwest 165 190 2,000  Level FlightAware ADS-B
Fri 07:15:51 PM 40.7330 -73.6860 210° Southwest 172 198 2,000 -450 Level FlightAware ADS-B
Fri 07:16:11 PM 40.7200 -73.6970 213° Southwest 160 184 1,700 -800 Descending FlightAware ADS-B
Fri 07:16:36 PM 40.7060 -73.7070 208° Southwest 135 155 1,400 -682 Descending FlightAware ADS-B
Fri 07:16:55 PM 40.6960 -73.7160 214° Southwest 134 154 1,200 -615 Descending FlightAware ADS-B
Fri 07:17:15 PM 40.6850 -73.7240 209° Southwest 124 143 1,000 -600 Descending FlightAware ADS-B
Fri 07:17:35 PM 40.6760 -73.7310 211° Southwest 126 145 800 -682 Descending FlightAware ADS-B
Fri 07:17:59 PM 40.6630 -73.7410 210° Southwest 127 146 500 -750 Descending FlightAware ADS-B
Fri 07:18:15 PM 40.6550 -73.7470 210° Southwest 126 145 300 -571 Descending FlightAware ADS-B
Fri 07:18:41 PM 40.6430 -73.7570 212° Southwest 123 142 100 -462 Descending FlightAware ADS-B
Fri 07:19:01 PM 40.6340 -73.7630 207° Southwest 74 85 -300 Descending FlightAware ADS-B

Login

Don't have an account? Register now (free) for customized features, flight alerts, and more!